createdAt,value
2018-07-30T00:00:33.275Z,101133.79
2018-07-30T00:03:57.839Z,101138.37
2018-07-30T00:07:22.394Z,101138.91
2018-07-30T00:10:46.892Z,101141.85
2018-07-30T00:14:11.740Z,101136.33
2018-07-30T00:17:36.308Z,101139.85
2018-07-30T00:21:00.793Z,101138.65
2018-07-30T00:24:25.375Z,101140.12
2018-07-30T00:27:49.980Z,101144.37
2018-07-30T00:31:14.508Z,101138.87
2018-07-30T00:34:39.061Z,101145.45
2018-07-30T00:38:03.607Z,101154.69
2018-07-30T00:41:28.115Z,101144.89
2018-07-30T00:44:52.570Z,101143.16
2018-07-30T00:48:17.178Z,101144.20
2018-07-30T00:51:41.742Z,101150.68
2018-07-30T00:55:06.388Z,101154.36
2018-07-30T00:58:30.907Z,101153.40
2018-07-30T01:01:55.487Z,101150.00
2018-07-30T01:05:20.017Z,101154.81
2018-07-30T01:08:44.562Z,101153.18
2018-07-30T01:12:09.020Z,101151.94
2018-07-30T01:15:33.439Z,101153.13
2018-07-30T01:18:57.881Z,101158.05
2018-07-30T01:22:22.384Z,101152.92
2018-07-30T01:25:47.001Z,101157.92
2018-07-30T01:29:11.587Z,101159.99
2018-07-30T01:32:36.154Z,101158.30
2018-07-30T01:36:00.761Z,101157.98
2018-07-30T01:39:25.359Z,101161.58
2018-07-30T01:42:49.847Z,101163.09
2018-07-30T01:46:14.452Z,101159.63
2018-07-30T01:49:38.951Z,101160.33
2018-07-30T01:53:03.395Z,101158.25
2018-07-30T01:56:27.923Z,101160.45
2018-07-30T01:59:52.521Z,101154.53
2018-07-30T02:03:17.048Z,101158.65
2018-07-30T02:06:41.556Z,101154.70
2018-07-30T02:10:07.425Z,101151.76
2018-07-30T02:13:31.942Z,101158.58
2018-07-30T02:16:56.577Z,101158.17
2018-07-30T02:20:21.078Z,101163.55
2018-07-30T02:23:45.576Z,101160.02
2018-07-30T02:27:10.086Z,101164.67
2018-07-30T02:30:34.536Z,101163.63
2018-07-30T02:33:58.947Z,101165.45
2018-07-30T02:37:23.386Z,101172.34
2018-07-30T02:40:47.919Z,101172.67
2018-07-30T02:44:12.469Z,101175.06
2018-07-30T02:47:36.974Z,101172.30
2018-07-30T02:51:01.438Z,101173.87
2018-07-30T02:54:25.949Z,101173.65
2018-07-30T02:57:50.156Z,101175.02
2018-07-30T03:01:14.601Z,101181.20
2018-07-30T03:04:39.071Z,101181.09
2018-07-30T03:08:03.562Z,101185.25
2018-07-30T03:11:28.044Z,101189.68
2018-07-30T03:14:52.628Z,101188.49
2018-07-30T03:18:17.284Z,101194.70
2018-07-30T03:21:41.745Z,101191.42
2018-07-30T03:25:07.576Z,101193.84
2018-07-30T03:28:38.454Z,101198.55
2018-07-30T03:32:02.843Z,101208.18
2018-07-30T03:35:27.236Z,101202.02
2018-07-30T03:38:51.675Z,101209.23
2018-07-30T03:42:16.177Z,101201.69
2018-07-30T03:45:40.625Z,101203.73
2018-07-30T03:49:05.072Z,101205.80
2018-07-30T03:52:29.495Z,101208.42
2018-07-30T03:55:53.987Z,101206.86
2018-07-30T03:59:18.442Z,101212.52
2018-07-30T04:02:43.933Z,101214.59
2018-07-30T04:06:08.430Z,101212.00
2018-07-30T04:09:32.790Z,101204.40
2018-07-30T04:12:57.243Z,101211.64
2018-07-30T04:16:21.684Z,101215.97
2018-07-30T04:19:46.106Z,101214.91
2018-07-30T04:23:10.504Z,101216.98
2018-07-30T04:26:34.945Z,101219.69
2018-07-30T04:29:59.382Z,101219.14
2018-07-30T04:33:23.803Z,101221.13
2018-07-30T04:36:47.920Z,101220.80
2018-07-30T04:40:12.327Z,101231.62
2018-07-30T04:43:36.755Z,101233.19
2018-07-30T04:47:01.172Z,101229.36
2018-07-30T04:50:25.684Z,101227.58
2018-07-30T04:53:50.095Z,101223.68
2018-07-30T04:57:14.578Z,101224.64
2018-07-30T05:00:39.134Z,101224.64
2018-07-30T05:04:03.767Z,101232.91
2018-07-30T05:07:28.275Z,101228.25
2018-07-30T05:10:53.564Z,101231.86
2018-07-30T05:14:17.979Z,101238.75
2018-07-30T05:18:31.776Z,101236.52
2018-07-30T05:22:14.224Z,101242.88
2018-07-30T05:25:38.540Z,101240.56
2018-07-30T05:29:03.025Z,101241.94
2018-07-30T05:32:27.467Z,101240.56
2018-07-30T05:35:52.086Z,101242.41
2018-07-30T05:39:16.633Z,101238.61
2018-07-30T05:42:41.195Z,101234.70
2018-07-30T05:46:05.850Z,101240.03
2018-07-30T05:49:30.462Z,101235.23
2018-07-30T05:52:55.119Z,101240.28
2018-07-30T05:56:19.618Z,101241.73
2018-07-30T05:59:44.366Z,101244.28
2018-07-30T06:03:08.824Z,101254.19
2018-07-30T06:06:33.376Z,101256.86
2018-07-30T06:09:57.723Z,101255.17
2018-07-30T06:13:22.276Z,101251.22
2018-07-30T06:16:46.800Z,101248.93
2018-07-30T06:20:11.970Z,101251.18
2018-07-30T06:23:37.350Z,101262.27
2018-07-30T06:27:01.813Z,101263.34
2018-07-30T06:30:26.375Z,101265.75
2018-07-30T06:33:50.857Z,101268.49
2018-07-30T06:37:16.067Z,101261.34
2018-07-30T06:40:40.571Z,101266.27
2018-07-30T06:44:05.888Z,101272.73
2018-07-30T06:47:30.299Z,101274.69
2018-07-30T06:50:54.732Z,101279.95
2018-07-30T06:54:19.179Z,101278.70
2018-07-30T06:57:43.581Z,101279.28
2018-07-30T07:01:08.054Z,101281.16
2018-07-30T07:04:32.641Z,101282.17
2018-07-30T07:07:57.157Z,101278.45
2018-07-30T07:11:21.905Z,101284.05
2018-07-30T07:14:46.401Z,101283.61
2018-07-30T07:18:11.104Z,101285.92
2018-07-30T07:21:40.044Z,101291.32
2018-07-30T07:25:04.420Z,101289.56
2018-07-30T07:28:28.995Z,101289.55
2018-07-30T07:31:53.512Z,101288.84
2018-07-30T07:35:17.984Z,101281.52
2018-07-30T07:38:42.461Z,101286.37
2018-07-30T07:42:07.063Z,101283.70
2018-07-30T07:45:32.551Z,101285.80
2018-07-30T07:48:57.044Z,101290.82
2018-07-30T07:52:21.569Z,101282.70
2018-07-30T07:55:46.161Z,101284.86
2018-07-30T07:59:10.736Z,101285.20
2018-07-30T08:02:35.265Z,101284.00
2018-07-30T08:05:59.832Z,101276.30
2018-07-30T08:09:24.296Z,101280.13
2018-07-30T08:12:48.757Z,101281.00
2018-07-30T08:16:13.300Z,101284.39
2018-07-30T08:19:37.798Z,101276.67
2018-07-30T08:23:02.352Z,101285.92
2018-07-30T08:26:26.976Z,101279.05
2018-07-30T08:29:52.034Z,101280.31
2018-07-30T08:33:16.512Z,101283.84
2018-07-30T08:36:40.980Z,101285.24
2018-07-30T08:40:06.928Z,101287.59
2018-07-30T08:43:31.494Z,101290.88
2018-07-30T08:46:56.070Z,101288.84
2018-07-30T08:50:20.630Z,101287.17
2018-07-30T08:53:45.277Z,101286.61
2018-07-30T08:57:10.054Z,101283.20
2018-07-30T09:00:34.585Z,101285.04
2018-07-30T09:03:59.188Z,101288.66
2018-07-30T09:07:23.809Z,101288.11
2018-07-30T09:10:48.452Z,101288.96
2018-07-30T09:14:13.032Z,101290.48
2018-07-30T09:17:37.511Z,101295.19
2018-07-30T09:21:01.748Z,101286.08
2018-07-30T09:24:26.214Z,101287.09
2018-07-30T09:27:50.675Z,101290.58
2018-07-30T09:31:15.191Z,101286.89
2018-07-30T09:34:39.668Z,101291.48
2018-07-30T09:38:04.216Z,101289.32
2018-07-30T09:41:28.692Z,101287.33
2018-07-30T09:44:53.149Z,101285.86
2018-07-30T09:48:19.989Z,101287.97
2018-07-30T09:51:44.585Z,101304.76
2018-07-30T09:55:09.235Z,101291.31
2018-07-30T09:58:33.819Z,101287.48
2018-07-30T10:01:58.355Z,101289.56
2018-07-30T10:05:22.936Z,101284.20
2018-07-30T10:08:47.549Z,101282.31
2018-07-30T10:12:12.126Z,101291.70
2018-07-30T10:15:36.635Z,101278.66
2018-07-30T10:19:01.257Z,101275.25
2018-07-30T10:22:25.834Z,101270.80
2018-07-30T10:25:50.473Z,101265.90
2018-07-30T10:29:15.079Z,101263.97
2018-07-30T10:32:39.607Z,101256.27
2018-07-30T10:36:04.179Z,101263.41
2018-07-30T10:39:28.734Z,101250.53
2018-07-30T10:42:53.287Z,101246.29
2018-07-30T10:46:17.894Z,101238.20
2018-07-30T10:49:42.293Z,101256.73
2018-07-30T10:53:07.725Z,101246.64
2018-07-30T10:56:43.824Z,101242.75
2018-07-30T11:00:08.565Z,101241.47
2018-07-30T11:03:33.104Z,101237.68
2018-07-30T11:06:57.637Z,101232.72
2018-07-30T11:10:22.192Z,101234.45
2018-07-30T11:13:46.735Z,101238.23
2018-07-30T11:17:11.338Z,101239.98
2018-07-30T11:20:35.816Z,101226.72
2018-07-30T11:24:00.349Z,101231.05
2018-07-30T11:27:24.905Z,101234.81
2018-07-30T11:30:49.169Z,101228.12
2018-07-30T11:34:13.645Z,101229.20
2018-07-30T11:37:38.098Z,101230.63
2018-07-30T11:41:02.585Z,101231.23
2018-07-30T11:44:27.110Z,101225.16
2018-07-30T11:47:51.594Z,101234.18
2018-07-30T11:51:16.138Z,101222.98
2018-07-30T11:54:41.102Z,101219.25
2018-07-30T11:58:05.578Z,101214.84
2018-07-30T12:01:30.160Z,101201.00
2018-07-30T12:04:54.660Z,101223.44
2018-07-30T12:08:19.244Z,101216.84
2018-07-30T12:11:43.780Z,101213.75
2018-07-30T12:15:08.258Z,101217.20
2018-07-30T12:18:32.771Z,101209.73
2018-07-30T12:21:57.317Z,101208.45
2018-07-30T12:25:21.892Z,101213.81
2018-07-30T12:28:46.401Z,101202.87
2018-07-30T12:32:10.890Z,101196.04
2018-07-30T12:35:35.281Z,101195.91
2018-07-30T12:38:59.855Z,101189.69
2018-07-30T12:42:24.325Z,101189.67
2018-07-30T12:45:48.968Z,101181.62
2018-07-30T12:49:13.488Z,101187.19
2018-07-30T12:52:37.962Z,101180.09
2018-07-30T12:56:02.424Z,101179.70
2018-07-30T12:59:26.890Z,101178.84
2018-07-30T13:02:51.361Z,101180.92
2018-07-30T13:06:15.901Z,101175.33
2018-07-30T13:09:40.330Z,101184.22
2018-07-30T13:13:04.815Z,101175.57
2018-07-30T13:16:29.300Z,101168.61
2018-07-30T13:19:53.765Z,101159.22
2018-07-30T13:23:18.178Z,101160.61
2018-07-30T13:26:42.697Z,101156.36
2018-07-30T13:30:11.417Z,101151.43
2018-07-30T13:33:35.951Z,101145.27
2018-07-30T13:37:00.615Z,101143.86
2018-07-30T13:40:25.202Z,101148.14
2018-07-30T13:43:49.787Z,101147.94
2018-07-30T13:47:15.115Z,101138.76
2018-07-30T13:50:39.691Z,101132.38
2018-07-30T13:54:04.296Z,101137.81
2018-07-30T13:57:28.872Z,101134.67
2018-07-30T14:00:53.643Z,101135.22
2018-07-30T14:04:18.266Z,101130.11
2018-07-30T14:07:42.957Z,101137.67
2018-07-30T14:11:07.728Z,101132.77
2018-07-30T14:14:32.268Z,101135.16
2018-07-30T14:17:56.896Z,101127.63
2018-07-30T14:21:21.444Z,101131.50
2018-07-30T14:24:46.115Z,101117.91
2018-07-30T14:28:10.581Z,101127.48
2018-07-30T14:31:35.334Z,101128.86
2018-07-30T14:34:59.907Z,101117.19
2018-07-30T14:38:24.431Z,101121.28
2018-07-30T14:41:49.060Z,101118.09
2018-07-30T14:45:13.620Z,101106.52
2018-07-30T14:48:38.214Z,101110.73
2018-07-30T14:52:02.777Z,101109.28
2018-07-30T14:55:27.443Z,101107.63
2018-07-30T14:58:52.038Z,101092.89
2018-07-30T15:02:16.840Z,101094.03
2018-07-30T15:05:41.440Z,101090.03
2018-07-30T15:09:10.884Z,101092.92
2018-07-30T15:12:35.594Z,101087.11
2018-07-30T15:16:00.195Z,101089.79
2018-07-30T15:19:24.674Z,101089.89
2018-07-30T15:22:50.418Z,101083.41
2018-07-30T15:26:15.200Z,101086.66
2018-07-30T15:29:39.759Z,101084.37
2018-07-30T15:33:04.278Z,101081.36
2018-07-30T15:36:28.822Z,101078.38
2018-07-30T15:39:53.555Z,101074.80
2018-07-30T15:43:18.055Z,101072.26
2018-07-30T15:46:42.664Z,101079.89
2018-07-30T15:50:07.216Z,101080.52
2018-07-30T15:53:31.724Z,101075.09
2018-07-30T15:56:56.325Z,101068.52
2018-07-30T16:00:21.868Z,101069.23
2018-07-30T16:03:46.489Z,101069.41
2018-07-30T16:07:11.091Z,101064.52
2018-07-30T16:10:35.620Z,101072.30
2018-07-30T16:14:00.207Z,101071.81
2018-07-30T16:17:24.804Z,101073.78
2018-07-30T16:20:49.447Z,101064.70
2018-07-30T16:24:13.944Z,101063.20
2018-07-30T16:27:38.542Z,101060.56
2018-07-30T16:31:03.106Z,101059.73
2018-07-30T16:34:27.575Z,101057.56
2018-07-30T16:37:52.077Z,101055.50
2018-07-30T16:41:16.632Z,101057.84
2018-07-30T16:44:41.179Z,101049.34
2018-07-30T16:48:05.822Z,101057.41
2018-07-30T16:51:30.432Z,101058.20
2018-07-30T16:54:55.055Z,101070.42
2018-07-30T16:58:19.628Z,101066.51
2018-07-30T17:01:44.114Z,101063.53
2018-07-30T17:05:08.907Z,101066.27
2018-07-30T17:08:33.429Z,101061.41
2018-07-30T17:11:57.922Z,101062.50
2018-07-30T17:15:22.336Z,101058.03
2018-07-30T17:18:46.782Z,101059.67
2018-07-30T17:22:11.209Z,101058.31
2018-07-30T17:25:36.097Z,101069.31
2018-07-30T17:29:00.636Z,101062.00
2018-07-30T17:32:25.065Z,101062.52
2018-07-30T17:35:49.552Z,101063.05
2018-07-30T17:39:14.219Z,101057.55
2018-07-30T17:42:38.911Z,101062.65
2018-07-30T17:46:03.599Z,101055.41
2018-07-30T17:49:28.170Z,101057.39
2018-07-30T17:52:52.596Z,101056.34
2018-07-30T17:56:17.089Z,101058.80
2018-07-30T17:59:41.866Z,101063.95
2018-07-30T18:03:06.464Z,101061.47
2018-07-30T18:06:30.818Z,101068.81
2018-07-30T18:09:55.481Z,101071.52
2018-07-30T18:13:19.975Z,101073.47
2018-07-30T18:16:44.555Z,101076.94
2018-07-30T18:20:09.302Z,101082.15
2018-07-30T18:23:33.820Z,101078.73
2018-07-30T18:26:58.484Z,101084.36
2018-07-30T18:30:23.923Z,101077.87
2018-07-30T18:33:48.572Z,101083.22
2018-07-30T18:37:13.218Z,101088.09
2018-07-30T18:40:37.870Z,101088.56
2018-07-30T18:44:02.465Z,101089.84
2018-07-30T18:47:27.153Z,101099.02
2018-07-30T18:50:51.756Z,101104.31
2018-07-30T18:54:16.392Z,101098.89
2018-07-30T18:57:40.976Z,101104.50
2018-07-30T19:01:05.565Z,101107.12
2018-07-30T19:04:30.181Z,101114.48
2018-07-30T19:07:54.723Z,101112.50
2018-07-30T19:11:19.301Z,101111.38
2018-07-30T19:14:43.893Z,101123.73
2018-07-30T19:18:08.454Z,101133.34
2018-07-30T19:21:33.005Z,101135.37
2018-07-30T19:24:57.627Z,101135.17
2018-07-30T19:28:22.126Z,101135.48
2018-07-30T19:31:46.704Z,101138.58
2018-07-30T19:35:11.180Z,101141.82
2018-07-30T19:38:35.772Z,101144.33
2018-07-30T19:42:00.308Z,101142.22
2018-07-30T19:45:24.933Z,101151.53
2018-07-30T19:48:49.486Z,101153.26
2018-07-30T19:52:14.112Z,101153.77
2018-07-30T19:55:38.897Z,101162.48
2018-07-30T19:59:03.607Z,101166.03
2018-07-30T20:02:27.955Z,101166.27
2018-07-30T20:05:52.418Z,101164.66
2018-07-30T20:09:17.120Z,101166.38
2018-07-30T20:12:41.706Z,101169.37
2018-07-30T20:16:06.294Z,101174.02
2018-07-30T20:19:31.926Z,101177.20
2018-07-30T20:22:56.586Z,101177.51
2018-07-30T20:26:21.164Z,101186.13
2018-07-30T20:29:45.775Z,101194.87
2018-07-30T20:33:10.276Z,101194.37
2018-07-30T20:36:34.861Z,101199.63
2018-07-30T20:39:59.854Z,101202.28
2018-07-30T20:43:24.481Z,101203.11
2018-07-30T20:46:49.083Z,101208.39
2018-07-30T20:50:13.752Z,101210.84
2018-07-30T20:53:38.411Z,101212.20
2018-07-30T20:57:02.995Z,101212.73
2018-07-30T21:00:27.552Z,101217.98
2018-07-30T21:03:52.153Z,101212.16
2018-07-30T21:07:16.847Z,101219.45
2018-07-30T21:10:41.692Z,101220.44
2018-07-30T21:14:06.277Z,101228.55
2018-07-30T21:17:30.839Z,101227.28
2018-07-30T21:20:55.642Z,101226.66
2018-07-30T21:24:20.122Z,101231.83
2018-07-30T21:27:44.676Z,101234.91
2018-07-30T21:31:09.191Z,101232.77
2018-07-30T21:34:33.798Z,101234.90
2018-07-30T21:37:58.302Z,101238.88
2018-07-30T21:41:22.792Z,101234.91
2018-07-30T21:44:47.263Z,101240.09
2018-07-30T21:48:11.794Z,101240.45
2018-07-30T21:51:36.416Z,101248.29
2018-07-30T21:55:00.991Z,101254.88
2018-07-30T21:58:25.538Z,101249.55
2018-07-30T22:01:50.063Z,101253.23
2018-07-30T22:05:16.247Z,101256.42
2018-07-30T22:08:40.660Z,101263.98
2018-07-30T22:12:05.189Z,101263.86
2018-07-30T22:15:29.624Z,101263.64
2018-07-30T22:18:54.289Z,101260.23
2018-07-30T22:22:19.094Z,101262.38
2018-07-30T22:25:43.499Z,101259.63
2018-07-30T22:29:07.962Z,101270.64
2018-07-30T22:32:32.396Z,101273.84
2018-07-30T22:35:56.822Z,101275.97
2018-07-30T22:39:21.233Z,101280.53
2018-07-30T22:42:45.661Z,101284.47
2018-07-30T22:46:10.194Z,101288.17
2018-07-30T22:49:34.742Z,101281.36
2018-07-30T22:52:59.296Z,101286.20
2018-07-30T22:56:27.605Z,101284.59
2018-07-30T22:59:52.110Z,101279.88
2018-07-30T23:03:16.723Z,101276.23
2018-07-30T23:06:41.311Z,101270.87
2018-07-30T23:10:06.358Z,101273.00
2018-07-30T23:13:30.886Z,101271.65
2018-07-30T23:16:55.364Z,101275.11
2018-07-30T23:20:19.840Z,101271.16
2018-07-30T23:23:44.306Z,101277.78
2018-07-30T23:27:08.983Z,101270.33
2018-07-30T23:30:33.468Z,101276.95
2018-07-30T23:33:58.005Z,101275.18
2018-07-30T23:37:22.662Z,101276.56
2018-07-30T23:40:46.918Z,101267.77
2018-07-30T23:44:11.349Z,101258.30
2018-07-30T23:47:35.769Z,101259.73
2018-07-30T23:51:00.207Z,101258.73
2018-07-30T23:54:24.639Z,101252.97
2018-07-30T23:57:49.022Z,101261.38
